sensor_id;sensor_type;location;lat;lon;timestamp;pressure;altitude;pressure_sealevel;temperature;humidity
63556;BME280;49700;48.072;7.800;2023-05-21T00:00:29;98998.78;;;18.49;nan
63556;BME280;49700;48.072;7.800;2023-05-21T00:02:55;98997.47;;;18.45;nan
63556;BME280;49700;48.072;7.800;2023-05-21T00:05:22;99003.75;;;18.44;nan
63556;BME280;49700;48.072;7.800;2023-05-21T00:07:48;98992.63;;;18.41;nan
63556;BME280;49700;48.072;7.800;2023-05-21T00:10:13;98989.13;;;18.32;nan
63556;BME280;49700;48.072;7.800;2023-05-21T00:12:39;98995.41;;;18.23;nan
63556;BME280;49700;48.072;7.800;2023-05-21T00:15:06;98988.25;;;18.15;nan
63556;BME280;49700;48.072;7.800;2023-05-21T00:17:31;98985.06;;;18.11;nan
63556;BME280;49700;48.072;7.800;2023-05-21T00:19:58;98978.22;;;18.09;nan
63556;BME280;49700;48.072;7.800;2023-05-21T00:22:24;98975.56;;;18.09;nan
63556;BME280;49700;48.072;7.800;2023-05-21T00:24:49;98983.56;;;18.09;nan
63556;BME280;49700;48.072;7.800;2023-05-21T00:27:15;98986.53;;;18.06;nan
63556;BME280;49700;48.072;7.800;2023-05-21T00:29:40;98979.88;;;18.02;nan
63556;BME280;49700;48.072;7.800;2023-05-21T00:32:06;98988.84;;;18.01;nan
63556;BME280;49700;48.072;7.800;2023-05-21T00:34:31;98982.00;;;17.98;nan
63556;BME280;49700;48.072;7.800;2023-05-21T00:36:57;98986.00;;;17.94;nan
63556;BME280;49700;48.072;7.800;2023-05-21T00:39:22;98992.31;;;17.93;nan
63556;BME280;49700;48.072;7.800;2023-05-21T00:41:48;98989.66;;;17.93;nan
63556;BME280;49700;48.072;7.800;2023-05-21T00:44:14;98983.00;;;17.89;nan
63556;BME280;49700;48.072;7.800;2023-05-21T00:46:41;98978.69;;;17.88;nan
63556;BME280;49700;48.072;7.800;2023-05-21T00:49:09;98979.50;;;17.88;nan
63556;BME280;49700;48.072;7.800;2023-05-21T00:51:35;98977.19;;;17.85;nan
63556;BME280;49700;48.072;7.800;2023-05-21T00:54:00;98977.50;;;17.82;nan
63556;BME280;49700;48.072;7.800;2023-05-21T00:56:26;98974.31;;;17.79;nan
63556;BME280;49700;48.072;7.800;2023-05-21T00:58:54;98976.44;;;17.75;nan
63556;BME280;49700;48.072;7.800;2023-05-21T01:01:21;98981.06;;;17.73;nan
63556;BME280;49700;48.072;7.800;2023-05-21T01:03:50;98977.06;;;17.69;nan
63556;BME280;49700;48.072;7.800;2023-05-21T01:06:16;98984.03;;;17.70;nan
63556;BME280;49700;48.072;7.800;2023-05-21T01:08:42;98976.06;;;17.70;nan
63556;BME280;49700;48.072;7.800;2023-05-21T01:11:08;98976.38;;;17.67;nan
63556;BME280;49700;48.072;7.800;2023-05-21T01:13:38;98974.19;;;17.62;nan
63556;BME280;49700;48.072;7.800;2023-05-21T01:16:04;98980.84;;;17.58;nan
63556;BME280;49700;48.072;7.800;2023-05-21T01:18:34;98973.00;;;17.57;nan
63556;BME280;49700;48.072;7.800;2023-05-21T01:21:03;98976.97;;;17.53;nan
63556;BME280;49700;48.072;7.800;2023-05-21T01:23:29;98971.44;;;17.46;nan
63556;BME280;49700;48.072;7.800;2023-05-21T01:25:54;98969.44;;;17.40;nan
63556;BME280;49700;48.072;7.800;2023-05-21T01:28:20;98974.38;;;17.35;nan
63556;BME280;49700;48.072;7.800;2023-05-21T01:30:45;98972.56;;;17.35;nan
63556;BME280;49700;48.072;7.800;2023-05-21T01:33:37;98970.91;;;17.34;nan
63556;BME280;49700;48.072;7.800;2023-05-21T01:36:15;98969.91;;;17.35;nan
63556;BME280;49700;48.072;7.800;2023-05-21T01:39:14;98961.25;;;17.33;nan
63556;BME280;49700;48.072;7.800;2023-05-21T01:41:42;98959.91;;;17.29;nan
63556;BME280;49700;48.072;7.800;2023-05-21T01:44:09;98970.84;;;17.26;nan
63556;BME280;49700;48.072;7.800;2023-05-21T01:46:36;98972.97;;;17.22;nan
63556;BME280;49700;48.072;7.800;2023-05-21T01:49:04;98971.31;;;17.21;nan
63556;BME280;49700;48.072;7.800;2023-05-21T01:51:30;98968.78;;;17.20;nan
63556;BME280;49700;48.072;7.800;2023-05-21T01:53:57;98969.09;;;17.17;nan
63556;BME280;49700;48.072;7.800;2023-05-21T01:56:22;98968.13;;;17.18;nan
63556;BME280;49700;48.072;7.800;2023-05-21T01:58:50;98966.44;;;17.17;nan
63556;BME280;49700;48.072;7.800;2023-05-21T02:01:16;98957.97;;;17.13;nan
63556;BME280;49700;48.072;7.800;2023-05-21T02:03:41;98964.44;;;17.11;nan
63556;BME280;49700;48.072;7.800;2023-05-21T02:06:07;98961.09;;;17.09;nan
63556;BME280;49700;48.072;7.800;2023-05-21T02:08:32;98965.44;;;17.10;nan
63556;BME280;49700;48.072;7.800;2023-05-21T02:10:58;98960.25;;;17.08;nan
63556;BME280;49700;48.072;7.800;2023-05-21T02:13:23;98957.91;;;17.05;nan
63556;BME280;49700;48.072;7.800;2023-05-21T02:15:49;98959.88;;;17.03;nan
63556;BME280;49700;48.072;7.800;2023-05-21T02:18:15;98962.72;;;17.01;nan
63556;BME280;49700;48.072;7.800;2023-05-21T02:20:42;98956.56;;;17.01;nan
63556;BME280;49700;48.072;7.800;2023-05-21T02:23:08;98953.06;;;17.00;nan
63556;BME280;49700;48.072;7.800;2023-05-21T02:25:34;98962.03;;;16.99;nan
63556;BME280;49700;48.072;7.800;2023-05-21T02:27:59;98955.03;;;16.98;nan
63556;BME280;49700;48.072;7.800;2023-05-21T02:30:26;98958.00;;;16.95;nan
63556;BME280;49700;48.072;7.800;2023-05-21T02:32:52;98950.34;;;16.92;nan
63556;BME280;49700;48.072;7.800;2023-05-21T02:35:18;98960.59;;;16.87;nan
63556;BME280;49700;48.072;7.800;2023-05-21T02:37:43;98953.25;;;16.81;nan
63556;BME280;49700;48.072;7.800;2023-05-21T02:40:09;98957.03;;;16.78;nan
63556;BME280;49700;48.072;7.800;2023-05-21T02:42:36;98958.97;;;16.76;nan
63556;BME280;49700;48.072;7.800;2023-05-21T02:45:08;98959.47;;;16.72;nan
63556;BME280;49700;48.072;7.800;2023-05-21T02:47:34;98950.97;;;16.68;nan
63556;BME280;49700;48.072;7.800;2023-05-21T02:50:00;98954.75;;;16.66;nan
63556;BME280;49700;48.072;7.800;2023-05-21T02:52:26;98960.34;;;16.63;nan
63556;BME280;49700;48.072;7.800;2023-05-21T02:54:51;98955.38;;;16.59;nan
63556;BME280;49700;48.072;7.800;2023-05-21T02:57:17;98954.53;;;16.59;nan
63556;BME280;49700;48.072;7.800;2023-05-21T02:59:43;98953.72;;;16.58;nan
63556;BME280;49700;48.072;7.800;2023-05-21T03:02:09;98961.81;;;16.57;nan
63556;BME280;49700;48.072;7.800;2023-05-21T03:04:35;98960.97;;;16.56;nan
63556;BME280;49700;48.072;7.800;2023-05-21T03:07:11;98963.63;;;16.56;nan
63556;BME280;49700;48.072;7.800;2023-05-21T03:09:39;98962.94;;;16.54;nan
63556;BME280;49700;48.072;7.800;2023-05-21T03:12:06;98957.50;;;16.56;nan
63556;BME280;49700;48.072;7.800;2023-05-21T03:14:32;98964.75;;;16.54;nan
63556;BME280;49700;48.072;7.800;2023-05-21T03:16:58;98959.75;;;16.51;nan
63556;BME280;49700;48.072;7.800;2023-05-21T03:19:23;98964.38;;;16.49;nan
63556;BME280;49700;48.072;7.800;2023-05-21T03:21:49;98960.72;;;16.50;nan
63556;BME280;49700;48.072;7.800;2023-05-21T03:24:14;98961.59;;;16.50;nan
63556;BME280;49700;48.072;7.800;2023-05-21T03:26:40;98972.19;;;16.50;nan
63556;BME280;49700;48.072;7.800;2023-05-21T03:29:06;98973.16;;;16.49;nan
63556;BME280;49700;48.072;7.800;2023-05-21T03:31:33;98971.50;;;16.48;nan
63556;BME280;49700;48.072;7.800;2023-05-21T03:34:05;98975.28;;;16.46;nan
63556;BME280;49700;48.072;7.800;2023-05-21T03:36:32;98978.00;;;16.36;nan
63556;BME280;49700;48.072;7.800;2023-05-21T03:38:58;98982.91;;;16.31;nan
63556;BME280;49700;48.072;7.800;2023-05-21T03:41:23;98983.22;;;16.28;nan
63556;BME280;49700;48.072;7.800;2023-05-21T03:43:54;98984.34;;;16.25;nan
63556;BME280;49700;48.072;7.800;2023-05-21T03:46:22;98982.00;;;16.22;nan
63556;BME280;49700;48.072;7.800;2023-05-21T03:48:59;98991.25;;;16.18;nan
63556;BME280;49700;48.072;7.800;2023-05-21T03:51:27;98991.25;;;16.18;nan
63556;BME280;49700;48.072;7.800;2023-05-21T03:53:56;98993.88;;;16.18;nan
63556;BME280;49700;48.072;7.800;2023-05-21T03:56:21;98999.00;;;16.20;nan
63556;BME280;49700;48.072;7.800;2023-05-21T03:58:47;99001.66;;;16.20;nan
63556;BME280;49700;48.072;7.800;2023-05-21T04:01:12;98999.19;;;16.18;nan
63556;BME280;49700;48.072;7.800;2023-05-21T04:03:38;98995.00;;;16.15;nan
63556;BME280;49700;48.072;7.800;2023-05-21T04:06:05;99004.63;;;16.17;nan
63556;BME280;49700;48.072;7.800;2023-05-21T04:08:31;98995.00;;;16.15;nan
63556;BME280;49700;48.072;7.800;2023-05-21T04:10:56;99005.91;;;16.12;nan
63556;BME280;49700;48.072;7.800;2023-05-21T04:13:22;99011.34;;;16.11;nan
63556;BME280;49700;48.072;7.800;2023-05-21T04:15:47;99013.00;;;16.12;nan
63556;BME280;49700;48.072;7.800;2023-05-21T04:18:14;99013.88;;;16.12;nan
63556;BME280;49700;48.072;7.800;2023-05-21T04:20:45;99016.50;;;16.12;nan
63556;BME280;49700;48.072;7.800;2023-05-21T04:23:10;99019.81;;;16.14;nan
63556;BME280;49700;48.072;7.800;2023-05-21T04:25:36;99023.34;;;16.15;nan
63556;BME280;49700;48.072;7.800;2023-05-21T04:28:03;99023.16;;;16.17;nan
63556;BME280;49700;48.072;7.800;2023-05-21T04:30:29;99029.16;;;16.19;nan
63556;BME280;49700;48.072;7.800;2023-05-21T04:32:54;99026.34;;;16.20;nan
63556;BME280;49700;48.072;7.800;2023-05-21T04:35:20;99034.84;;;16.24;nan
63556;BME280;49700;48.072;7.800;2023-05-21T04:37:45;99032.91;;;16.26;nan
63556;BME280;49700;48.072;7.800;2023-05-21T04:40:14;99029.13;;;16.28;nan
63556;BME280;49700;48.072;7.800;2023-05-21T04:42:45;99041.22;;;16.31;nan
63556;BME280;49700;48.072;7.800;2023-05-21T04:45:13;99034.13;;;16.31;nan
63556;BME280;49700;48.072;7.800;2023-05-21T04:47:42;99037.28;;;16.35;nan
63556;BME280;49700;48.072;7.800;2023-05-21T04:50:08;99031.84;;;16.36;nan
63556;BME280;49700;48.072;7.800;2023-05-21T04:52:35;99039.81;;;16.36;nan
63556;BME280;49700;48.072;7.800;2023-05-21T04:55:01;99043.28;;;16.37;nan
63556;BME280;49700;48.072;7.800;2023-05-21T04:57:27;99044.66;;;16.41;nan
63556;BME280;49700;48.072;7.800;2023-05-21T04:59:54;99044.22;;;16.46;nan
63556;BME280;49700;48.072;7.800;2023-05-21T05:02:19;99048.06;;;16.51;nan
63556;BME280;49700;48.072;7.800;2023-05-21T05:04:45;99050.13;;;16.57;nan
63556;BME280;49700;48.072;7.800;2023-05-21T05:07:10;99050.22;;;16.66;nan
63556;BME280;49700;48.072;7.800;2023-05-21T05:09:36;99045.16;;;16.72;nan
63556;BME280;49700;48.072;7.800;2023-05-21T05:12:02;99048.75;;;16.81;nan
63556;BME280;49700;48.072;7.800;2023-05-21T05:14:27;99040.03;;;16.89;nan
63556;BME280;49700;48.072;7.800;2023-05-21T05:16:53;99047.25;;;16.96;nan
63556;BME280;49700;48.072;7.800;2023-05-21T05:19:23;99039.88;;;17.08;nan
63556;BME280;49700;48.072;7.800;2023-05-21T05:21:49;99046.44;;;17.22;nan
63556;BME280;49700;48.072;7.800;2023-05-21T05:24:14;99038.09;;;17.35;nan
63556;BME280;49700;48.072;7.800;2023-05-21T05:26:40;99037.69;;;17.47;nan
63556;BME280;49700;48.072;7.800;2023-05-21T05:29:06;99035.75;;;17.58;nan
63556;BME280;49700;48.072;7.800;2023-05-21T05:31:31;99035.78;;;17.66;nan
63556;BME280;49700;48.072;7.800;2023-05-21T05:33:57;99036.16;;;17.71;nan
63556;BME280;49700;48.072;7.800;2023-05-21T05:36:23;99037.19;;;17.78;nan
63556;BME280;49700;48.072;7.800;2023-05-21T05:38:48;99032.78;;;17.87;nan
63556;BME280;49700;48.072;7.800;2023-05-21T05:41:15;99035.81;;;17.92;nan
63556;BME280;49700;48.072;7.800;2023-05-21T05:43:40;99041.97;;;18.01;nan
63556;BME280;49700;48.072;7.800;2023-05-21T05:46:06;99028.44;;;18.12;nan
63556;BME280;49700;48.072;7.800;2023-05-21T05:48:32;99036.47;;;18.28;nan
63556;BME280;49700;48.072;7.800;2023-05-21T05:50:58;99035.66;;;18.44;nan
63556;BME280;49700;48.072;7.800;2023-05-21T05:53:24;99033.22;;;18.59;nan
63556;BME280;49700;48.072;7.800;2023-05-21T05:55:50;99032.81;;;18.80;nan
63556;BME280;49700;48.072;7.800;2023-05-21T05:58:16;99022.66;;;19.08;nan
63556;BME280;49700;48.072;7.800;2023-05-21T06:01:04;99025.28;;;19.41;nan
63556;BME280;49700;48.072;7.800;2023-05-21T06:03:30;99020.94;;;19.73;nan
63556;BME280;49700;48.072;7.800;2023-05-21T06:05:56;99021.50;;;20.07;nan
63556;BME280;49700;48.072;7.800;2023-05-21T06:08:22;99022.56;;;20.29;nan
63556;BME280;49700;48.072;7.800;2023-05-21T06:10:48;99023.97;;;20.48;nan
63556;BME280;49700;48.072;7.800;2023-05-21T06:13:14;99022.84;;;20.74;nan
63556;BME280;49700;48.072;7.800;2023-05-21T06:15:39;99024.78;;;21.03;nan
63556;BME280;49700;48.072;7.800;2023-05-21T06:18:07;99026.34;;;21.35;nan
63556;BME280;49700;48.072;7.800;2023-05-21T06:20:33;99014.00;;;21.72;nan
63556;BME280;49700;48.072;7.800;2023-05-21T06:22:59;99010.00;;;21.98;nan
63556;BME280;49700;48.072;7.800;2023-05-21T06:25:25;99017.22;;;22.12;nan
63556;BME280;49700;48.072;7.800;2023-05-21T06:27:51;99010.75;;;22.21;nan
63556;BME280;49700;48.072;7.800;2023-05-21T06:30:22;99021.50;;;22.43;nan
63556;BME280;49700;48.072;7.800;2023-05-21T06:32:47;99014.06;;;22.60;nan
63556;BME280;49700;48.072;7.800;2023-05-21T06:35:13;99017.78;;;22.59;nan
63556;BME280;49700;48.072;7.800;2023-05-21T06:37:39;99025.47;;;22.47;nan
63556;BME280;49700;48.072;7.800;2023-05-21T06:40:06;99022.91;;;22.39;nan
63556;BME280;49700;48.072;7.800;2023-05-21T06:42:32;99020.31;;;22.45;nan
63556;BME280;49700;48.072;7.800;2023-05-21T06:45:29;99023.41;;;22.49;nan
63556;BME280;49700;48.072;7.800;2023-05-21T06:47:59;99019.69;;;22.65;nan
63556;BME280;49700;48.072;7.800;2023-05-21T06:50:25;99019.25;;;22.83;nan
63556;BME280;49700;48.072;7.800;2023-05-21T06:52:50;99028.97;;;23.05;nan
63556;BME280;49700;48.072;7.800;2023-05-21T06:55:16;99017.66;;;23.31;nan
63556;BME280;49700;48.072;7.800;2023-05-21T06:58:00;99013.56;;;23.63;nan
63556;BME280;49700;48.072;7.800;2023-05-21T07:00:25;99004.91;;;23.96;nan
63556;BME280;49700;48.072;7.800;2023-05-21T07:02:52;99021.91;;;24.17;nan
63556;BME280;49700;48.072;7.800;2023-05-21T07:05:17;99010.44;;;24.36;nan
63556;BME280;49700;48.072;7.800;2023-05-21T07:07:43;99011.34;;;24.50;nan
63556;BME280;49700;48.072;7.800;2023-05-21T07:10:08;99018.63;;;24.63;nan
63556;BME280;49700;48.072;7.800;2023-05-21T07:12:34;99023.81;;;24.71;nan
63556;BME280;49700;48.072;7.800;2023-05-21T07:15:02;99015.94;;;24.69;nan
63556;BME280;49700;48.072;7.800;2023-05-21T07:17:28;99016.75;;;24.70;nan
63556;BME280;49700;48.072;7.800;2023-05-21T07:19:54;99016.34;;;24.73;nan
63556;BME280;49700;48.072;7.800;2023-05-21T07:22:20;99013.47;;;24.81;nan
63556;BME280;49700;48.072;7.800;2023-05-21T07:24:45;99018.25;;;24.92;nan
63556;BME280;49700;48.072;7.800;2023-05-21T07:27:11;99009.38;;;25.05;nan
63556;BME280;49700;48.072;7.800;2023-05-21T07:29:36;99012.06;;;25.12;nan
63556;BME280;49700;48.072;7.800;2023-05-21T07:32:02;99013.13;;;25.31;nan
63556;BME280;49700;48.072;7.800;2023-05-21T07:34:28;99014.34;;;25.48;nan
63556;BME280;49700;48.072;7.800;2023-05-21T07:36:53;99004.19;;;25.57;nan
63556;BME280;49700;48.072;7.800;2023-05-21T07:39:20;99001.06;;;25.73;nan
63556;BME280;49700;48.072;7.800;2023-05-21T07:41:46;99007.44;;;25.92;nan
63556;BME280;49700;48.072;7.800;2023-05-21T07:44:11;98997.66;;;26.11;nan
63556;BME280;49700;48.072;7.800;2023-05-21T07:46:40;98988.69;;;26.24;nan
63556;BME280;49700;48.072;7.800;2023-05-21T07:49:06;98996.53;;;26.39;nan
63556;BME280;49700;48.072;7.800;2023-05-21T07:51:32;98993.72;;;26.65;nan
63556;BME280;49700;48.072;7.800;2023-05-21T07:53:57;98996.44;;;26.90;nan
63556;BME280;49700;48.072;7.800;2023-05-21T07:56:29;98994.47;;;27.04;nan
63556;BME280;49700;48.072;7.800;2023-05-21T07:58:57;98987.16;;;27.11;nan
63556;BME280;49700;48.072;7.800;2023-05-21T08:01:24;98987.06;;;27.25;nan
63556;BME280;49700;48.072;7.800;2023-05-21T08:03:49;98989.38;;;27.21;nan
63556;BME280;49700;48.072;7.800;2023-05-21T08:06:14;98984.22;;;27.20;nan
63556;BME280;49700;48.072;7.800;2023-05-21T08:08:40;98979.44;;;27.15;nan
63556;BME280;49700;48.072;7.800;2023-05-21T08:11:05;98989.88;;;27.05;nan
63556;BME280;49700;48.072;7.800;2023-05-21T08:13:32;98992.75;;;26.85;nan
63556;BME280;49700;48.072;7.800;2023-05-21T08:15:57;98991.91;;;26.53;nan
63556;BME280;49700;48.072;7.800;2023-05-21T08:18:24;98984.75;;;26.26;nan
63556;BME280;49700;48.072;7.800;2023-05-21T08:20:52;98985.00;;;26.18;nan
63556;BME280;49700;48.072;7.800;2023-05-21T08:23:19;98976.97;;;26.12;nan
63556;BME280;49700;48.072;7.800;2023-05-21T08:25:49;98981.50;;;26.11;nan
63556;BME280;49700;48.072;7.800;2023-05-21T08:28:14;98980.09;;;26.02;nan
63556;BME280;49700;48.072;7.800;2023-05-21T08:30:40;98972.66;;;25.97;nan
63556;BME280;49700;48.072;7.800;2023-05-21T08:33:05;98975.81;;;25.88;nan
63556;BME280;49700;48.072;7.800;2023-05-21T08:35:32;98976.25;;;25.85;nan
63556;BME280;49700;48.072;7.800;2023-05-21T08:38:27;98977.03;;;25.92;nan
63556;BME280;49700;48.072;7.800;2023-05-21T08:40:58;98976.00;;;25.93;nan
63556;BME280;49700;48.072;7.800;2023-05-21T08:43:27;98982.41;;;25.98;nan
63556;BME280;49700;48.072;7.800;2023-05-21T08:45:56;98972.03;;;26.02;nan
63556;BME280;49700;48.072;7.800;2023-05-21T08:48:27;98971.41;;;26.07;nan
63556;BME280;49700;48.072;7.800;2023-05-21T08:50:53;98973.66;;;26.03;nan
63556;BME280;49700;48.072;7.800;2023-05-21T08:53:26;98970.34;;;26.08;nan
63556;BME280;49700;48.072;7.800;2023-05-21T08:55:53;98976.59;;;25.95;nan
63556;BME280;49700;48.072;7.800;2023-05-21T08:58:21;98971.84;;;25.97;nan
63556;BME280;49700;48.072;7.800;2023-05-21T09:00:47;98971.66;;;25.98;nan
63556;BME280;49700;48.072;7.800;2023-05-21T09:03:14;98973.03;;;26.14;nan
63556;BME280;49700;48.072;7.800;2023-05-21T09:05:42;98974.78;;;26.34;nan
63556;BME280;49700;48.072;7.800;2023-05-21T09:08:12;98989.22;;;26.46;nan
63556;BME280;49700;48.072;7.800;2023-05-21T09:11:00;98975.91;;;26.19;nan
63556;BME280;49700;48.072;7.800;2023-05-21T09:13:32;98975.53;;;26.02;nan
63556;BME280;49700;48.072;7.800;2023-05-21T09:16:01;98974.72;;;26.09;nan
63556;BME280;49700;48.072;7.800;2023-05-21T09:18:27;98979.81;;;26.23;nan
63556;BME280;49700;48.072;7.800;2023-05-21T09:21:26;98976.09;;;26.18;nan
63556;BME280;49700;48.072;7.800;2023-05-21T09:23:55;98976.72;;;26.20;nan
63556;BME280;49700;48.072;7.800;2023-05-21T09:26:21;98972.34;;;26.25;nan
63556;BME280;49700;48.072;7.800;2023-05-21T09:28:48;98973.97;;;26.33;nan
63556;BME280;49700;48.072;7.800;2023-05-21T09:31:13;98975.16;;;26.44;nan
63556;BME280;49700;48.072;7.800;2023-05-21T09:33:44;98976.03;;;26.31;nan
63556;BME280;49700;48.072;7.800;2023-05-21T09:36:10;98977.50;;;26.27;nan
63556;BME280;49700;48.072;7.800;2023-05-21T09:38:36;98974.78;;;26.34;nan
63556;BME280;49700;48.072;7.800;2023-05-21T09:41:04;98968.97;;;26.37;nan
63556;BME280;49700;48.072;7.800;2023-05-21T09:43:30;98976.00;;;26.38;nan
63556;BME280;49700;48.072;7.800;2023-05-21T09:45:56;98968.16;;;26.36;nan
63556;BME280;49700;48.072;7.800;2023-05-21T09:51:09;98973.91;;;26.40;nan
63556;BME280;49700;48.072;7.800;2023-05-21T09:53:35;98969.09;;;26.55;nan
63556;BME280;49700;48.072;7.800;2023-05-21T09:56:01;98974.16;;;26.77;nan
63556;BME280;49700;48.072;7.800;2023-05-21T09:58:27;98965.09;;;26.96;nan
63556;BME280;49700;48.072;7.800;2023-05-21T10:00:53;98965.34;;;27.13;nan
63556;BME280;49700;48.072;7.800;2023-05-21T10:03:22;98960.53;;;27.22;nan
63556;BME280;49700;48.072;7.800;2023-05-21T10:05:48;98960.47;;;27.28;nan
63556;BME280;49700;48.072;7.800;2023-05-21T10:08:17;98957.94;;;27.33;nan
63556;BME280;49700;48.072;7.800;2023-05-21T10:10:43;98947.69;;;27.42;nan
63556;BME280;49700;48.072;7.800;2023-05-21T10:13:11;98951.56;;;27.46;nan
63556;BME280;49700;48.072;7.800;2023-05-21T10:15:43;98944.53;;;27.45;nan
63556;BME280;49700;48.072;7.800;2023-05-21T10:18:11;98943.34;;;27.41;nan
63556;BME280;49700;48.072;7.800;2023-05-21T10:20:38;98944.19;;;27.42;nan
63556;BME280;49700;48.072;7.800;2023-05-21T10:23:03;98937.88;;;27.48;nan
63556;BME280;49700;48.072;7.800;2023-05-21T10:25:30;98938.69;;;27.48;nan
63556;BME280;49700;48.072;7.800;2023-05-21T10:27:56;98938.09;;;27.46;nan
63556;BME280;49700;48.072;7.800;2023-05-21T10:30:22;98940.88;;;27.40;nan
63556;BME280;49700;48.072;7.800;2023-05-21T10:32:49;98931.72;;;27.41;nan
63556;BME280;49700;48.072;7.800;2023-05-21T10:35:17;98936.59;;;27.50;nan
63556;BME280;49700;48.072;7.800;2023-05-21T10:37:43;98934.06;;;27.55;nan
63556;BME280;49700;48.072;7.800;2023-05-21T10:40:10;98939.47;;;27.55;nan
63556;BME280;49700;48.072;7.800;2023-05-21T10:51:25;98931.75;;;27.77;nan
63556;BME280;49700;48.072;7.800;2023-05-21T10:59:59;98916.97;;;27.98;nan
63556;BME280;49700;48.072;7.800;2023-05-21T11:02:26;98919.03;;;27.85;nan
63556;BME280;49700;48.072;7.800;2023-05-21T11:04:59;98914.31;;;27.80;nan
63556;BME280;49700;48.072;7.800;2023-05-21T11:07:51;98923.84;;;27.76;nan
63556;BME280;49700;48.072;7.800;2023-05-21T11:10:38;98907.53;;;27.52;nan
63556;BME280;49700;48.072;7.800;2023-05-21T11:13:15;98911.13;;;27.46;nan
63556;BME280;49700;48.072;7.800;2023-05-21T11:18:22;98907.69;;;27.57;nan
63556;BME280;49700;48.072;7.800;2023-05-21T11:20:51;98914.88;;;27.64;nan
63556;BME280;49700;48.072;7.800;2023-05-21T11:23:17;98910.81;;;27.73;nan
63556;BME280;49700;48.072;7.800;2023-05-21T11:25:59;98913.06;;;27.76;nan
63556;BME280;49700;48.072;7.800;2023-05-21T11:28:32;98906.22;;;27.80;nan
63556;BME280;49700;48.072;7.800;2023-05-21T11:31:26;98908.25;;;27.78;nan
63556;BME280;49700;48.072;7.800;2023-05-21T11:36:48;98903.41;;;27.68;nan
63556;BME280;49700;48.072;7.800;2023-05-21T11:39:15;98909.94;;;27.61;nan
63556;BME280;49700;48.072;7.800;2023-05-21T11:44:14;98899.16;;;27.61;nan
63556;BME280;49700;48.072;7.800;2023-05-21T11:46:39;98899.34;;;27.41;nan
63556;BME280;49700;48.072;7.800;2023-05-21T11:49:05;98901.59;;;27.25;nan
63556;BME280;49700;48.072;7.800;2023-05-21T11:51:31;98905.84;;;27.14;nan
63556;BME280;49700;48.072;7.800;2023-05-21T11:53:57;98902.47;;;27.19;nan
63556;BME280;49700;48.072;7.800;2023-05-21T11:56:24;98901.53;;;27.32;nan
63556;BME280;49700;48.072;7.800;2023-05-21T11:58:53;98902.66;;;27.43;nan
63556;BME280;49700;48.072;7.800;2023-05-21T12:01:21;98892.38;;;27.51;nan
63556;BME280;49700;48.072;7.800;2023-05-21T12:03:47;98901.09;;;27.53;nan
63556;BME280;49700;48.072;7.800;2023-05-21T12:06:12;98907.53;;;27.52;nan
63556;BME280;49700;48.072;7.800;2023-05-21T12:08:38;98899.22;;;27.54;nan
63556;BME280;49700;48.072;7.800;2023-05-21T12:11:03;98893.34;;;27.57;nan
63556;BME280;49700;48.072;7.800;2023-05-21T12:13:29;98898.09;;;27.62;nan
63556;BME280;49700;48.072;7.800;2023-05-21T12:15:54;98893.19;;;27.70;nan
63556;BME280;49700;48.072;7.800;2023-05-21T12:18:20;98899.00;;;27.74;nan
63556;BME280;49700;48.072;7.800;2023-05-21T12:20:45;98902.72;;;27.73;nan
63556;BME280;49700;48.072;7.800;2023-05-21T12:23:24;98889.47;;;27.71;nan
63556;BME280;49700;48.072;7.800;2023-05-21T12:25:50;98889.53;;;27.65;nan
63556;BME280;49700;48.072;7.800;2023-05-21T12:28:16;98891.19;;;27.66;nan
63556;BME280;49700;48.072;7.800;2023-05-21T12:30:42;98892.84;;;27.67;nan
63556;BME280;49700;48.072;7.800;2023-05-21T12:33:07;98905.88;;;27.70;nan
63556;BME280;49700;48.072;7.800;2023-05-21T12:35:32;98904.84;;;27.71;nan
63556;BME280;49700;48.072;7.800;2023-05-21T12:38:01;98916.66;;;27.70;nan
63556;BME280;49700;48.072;7.800;2023-05-21T12:40:34;98919.38;;;27.70;nan
63556;BME280;49700;48.072;7.800;2023-05-21T12:43:01;98923.84;;;27.76;nan
63556;BME280;49700;48.072;7.800;2023-05-21T12:45:27;98919.03;;;27.85;nan
63556;BME280;49700;48.072;7.800;2023-05-21T12:47:53;98914.00;;;27.88;nan
63556;BME280;49700;48.072;7.800;2023-05-21T12:50:20;98910.53;;;27.81;nan
63556;BME280;49700;48.072;7.800;2023-05-21T12:52:46;98915.63;;;27.71;nan
63556;BME280;49700;48.072;7.800;2023-05-21T12:55:15;98925.31;;;27.60;nan
63556;BME280;49700;48.072;7.800;2023-05-21T12:57:41;98931.06;;;27.45;nan
63556;BME280;49700;48.072;7.800;2023-05-21T13:00:08;98922.38;;;27.25;nan
63556;BME280;49700;48.072;7.800;2023-05-21T13:02:40;98923.72;;;27.09;nan
63556;BME280;49700;48.072;7.800;2023-05-21T13:05:08;98930.66;;;26.98;nan
63556;BME280;49700;48.072;7.800;2023-05-21T13:07:36;98927.63;;;26.88;nan
63556;BME280;49700;48.072;7.800;2023-05-21T13:10:03;98924.38;;;26.79;nan
63556;BME280;49700;48.072;7.800;2023-05-21T13:12:30;98934.75;;;26.76;nan
63556;BME280;49700;48.072;7.800;2023-05-21T13:14:57;98933.16;;;26.68;nan
63556;BME280;49700;48.072;7.800;2023-05-21T13:17:24;98936.28;;;26.65;nan
63556;BME280;49700;48.072;7.800;2023-05-21T13:20:06;98939.84;;;26.65;nan
63556;BME280;49700;48.072;7.800;2023-05-21T13:22:34;98940.25;;;26.62;nan
63556;BME280;49700;48.072;7.800;2023-05-21T13:25:03;98932.00;;;26.57;nan
63556;BME280;49700;48.072;7.800;2023-05-21T13:27:29;98934.72;;;26.57;nan
63556;BME280;49700;48.072;7.800;2023-05-21T13:29:54;98933.22;;;26.61;nan
63556;BME280;49700;48.072;7.800;2023-05-21T13:32:21;98924.53;;;26.59;nan
63556;BME280;49700;48.072;7.800;2023-05-21T13:34:46;98920.19;;;26.58;nan
63556;BME280;49700;48.072;7.800;2023-05-21T13:37:12;98917.06;;;26.61;nan
63556;BME280;49700;48.072;7.800;2023-05-21T13:39:38;98920.13;;;26.65;nan
63556;BME280;49700;48.072;7.800;2023-05-21T13:42:03;98926.94;;;26.67;nan
63556;BME280;49700;48.072;7.800;2023-05-21T13:44:32;98916.94;;;26.75;nan
63556;BME280;49700;48.072;7.800;2023-05-21T13:47:06;98922.88;;;26.83;nan
63556;BME280;49700;48.072;7.800;2023-05-21T13:49:33;98912.66;;;26.92;nan